sensor_id;sensor_type;location;lat;lon;timestamp;P1;durP1;ratioP1;P2;durP2;ratioP2
70840;SDS011;58465;51.534;9.934;2022-07-01T00:01:25;12.60;;;8.60;;
70840;SDS011;58465;51.534;9.934;2022-07-01T00:03:51;8.82;;;7.50;;
70840;SDS011;58465;51.534;9.934;2022-07-01T00:06:20;8.65;;;7.68;;
70840;SDS011;58465;51.534;9.934;2022-07-01T00:08:45;11.35;;;8.38;;
70840;SDS011;58465;51.534;9.934;2022-07-01T00:11:11;9.77;;;8.38;;
70840;SDS011;58465;51.534;9.934;2022-07-01T00:13:37;10.77;;;7.85;;
70840;SDS011;58465;51.534;9.934;2022-07-01T00:16:02;9.90;;;8.35;;
70840;SDS011;58465;51.534;9.934;2022-07-01T00:18:28;11.68;;;8.75;;
70840;SDS011;58465;51.534;9.934;2022-07-01T00:20:54;11.90;;;9.98;;
70840;SDS011;58465;51.534;9.934;2022-07-01T00:23:19;14.68;;;9.52;;
70840;SDS011;58465;51.534;9.934;2022-07-01T00:25:45;13.57;;;10.20;;
70840;SDS011;58465;51.534;9.934;2022-07-01T00:28:10;12.10;;;9.63;;
70840;SDS011;58465;51.534;9.934;2022-07-01T00:30:36;13.68;;;9.93;;
70840;SDS011;58465;51.534;9.934;2022-07-01T00:33:02;13.20;;;9.77;;
70840;SDS011;58465;51.534;9.934;2022-07-01T00:35:27;11.25;;;9.50;;
70840;SDS011;58465;51.534;9.934;2022-07-01T00:37:53;13.43;;;9.35;;
70840;SDS011;58465;51.534;9.934;2022-07-01T00:40:18;13.18;;;9.65;;
70840;SDS011;58465;51.534;9.934;2022-07-01T00:42:43;13.82;;;9.35;;
70840;SDS011;58465;51.534;9.934;2022-07-01T00:45:09;11.70;;;10.00;;
70840;SDS011;58465;51.534;9.934;2022-07-01T00:47:35;14.43;;;9.93;;
70840;SDS011;58465;51.534;9.934;2022-07-01T00:50:01;11.88;;;9.65;;
70840;SDS011;58465;51.534;9.934;2022-07-01T00:52:31;12.43;;;10.23;;
70840;SDS011;58465;51.534;9.934;2022-07-01T00:54:57;11.63;;;9.65;;
70840;SDS011;58465;51.534;9.934;2022-07-01T00:57:24;17.70;;;9.25;;
70840;SDS011;58465;51.534;9.934;2022-07-01T00:59:55;14.38;;;10.13;;
70840;SDS011;58465;51.534;9.934;2022-07-01T01:02:20;12.82;;;9.65;;
70840;SDS011;58465;51.534;9.934;2022-07-01T01:04:46;12.43;;;9.25;;
70840;SDS011;58465;51.534;9.934;2022-07-01T01:07:12;13.75;;;10.15;;
70840;SDS011;58465;51.534;9.934;2022-07-01T01:09:38;14.18;;;9.68;;
70840;SDS011;58465;51.534;9.934;2022-07-01T01:12:03;12.13;;;9.75;;
70840;SDS011;58465;51.534;9.934;2022-07-01T01:14:29;12.40;;;9.50;;
70840;SDS011;58465;51.534;9.934;2022-07-01T01:16:54;13.88;;;10.40;;
70840;SDS011;58465;51.534;9.934;2022-07-01T01:19:20;15.85;;;8.88;;
70840;SDS011;58465;51.534;9.934;2022-07-01T01:21:46;10.07;;;8.27;;
70840;SDS011;58465;51.534;9.934;2022-07-01T01:24:12;12.90;;;8.25;;
70840;SDS011;58465;51.534;9.934;2022-07-01T01:26:37;14.02;;;9.77;;
70840;SDS011;58465;51.534;9.934;2022-07-01T01:29:03;11.65;;;8.98;;
70840;SDS011;58465;51.534;9.934;2022-07-01T01:31:29;11.68;;;8.65;;
70840;SDS011;58465;51.534;9.934;2022-07-01T01:33:58;10.13;;;7.90;;
70840;SDS011;58465;51.534;9.934;2022-07-01T01:36:23;9.95;;;8.25;;
70840;SDS011;58465;51.534;9.934;2022-07-01T01:38:49;8.98;;;7.00;;
70840;SDS011;58465;51.534;9.934;2022-07-01T01:41:14;7.25;;;6.53;;
70840;SDS011;58465;51.534;9.934;2022-07-01T01:43:39;8.43;;;6.32;;
70840;SDS011;58465;51.534;9.934;2022-07-01T01:46:05;6.97;;;5.32;;
70840;SDS011;58465;51.534;9.934;2022-07-01T01:48:30;7.10;;;5.28;;
70840;SDS011;58465;51.534;9.934;2022-07-01T01:50:56;5.95;;;4.43;;
70840;SDS011;58465;51.534;9.934;2022-07-01T01:53:21;4.55;;;3.80;;
70840;SDS011;58465;51.534;9.934;2022-07-01T01:55:47;4.45;;;3.65;;
70840;SDS011;58465;51.534;9.934;2022-07-01T01:58:12;4.18;;;3.30;;
70840;SDS011;58465;51.534;9.934;2022-07-01T02:00:37;5.85;;;4.03;;
70840;SDS011;58465;51.534;9.934;2022-07-01T02:03:03;4.80;;;3.40;;
70840;SDS011;58465;51.534;9.934;2022-07-01T02:05:28;5.40;;;3.50;;
70840;SDS011;58465;51.534;9.934;2022-07-01T02:07:54;4.05;;;2.97;;
70840;SDS011;58465;51.534;9.934;2022-07-01T02:10:19;3.10;;;2.65;;
70840;SDS011;58465;51.534;9.934;2022-07-01T02:12:45;4.13;;;2.42;;
70840;SDS011;58465;51.534;9.934;2022-07-01T02:15:12;8.15;;;3.40;;
70840;SDS011;58465;51.534;9.934;2022-07-01T02:17:37;5.60;;;3.00;;
70840;SDS011;58465;51.534;9.934;2022-07-01T02:20:02;5.78;;;3.15;;
70840;SDS011;58465;51.534;9.934;2022-07-01T02:22:29;7.47;;;3.25;;
70840;SDS011;58465;51.534;9.934;2022-07-01T02:24:54;5.13;;;3.65;;
70840;SDS011;58465;51.534;9.934;2022-07-01T02:27:19;5.32;;;3.70;;
70840;SDS011;58465;51.534;9.934;2022-07-01T02:29:45;7.65;;;3.65;;
70840;SDS011;58465;51.534;9.934;2022-07-01T02:32:10;4.95;;;3.90;;
70840;SDS011;58465;51.534;9.934;2022-07-01T02:34:35;6.88;;;5.15;;
70840;SDS011;58465;51.534;9.934;2022-07-01T02:37:01;8.20;;;5.22;;
70840;SDS011;58465;51.534;9.934;2022-07-01T02:39:26;6.57;;;5.22;;
70840;SDS011;58465;51.534;9.934;2022-07-01T02:41:51;7.00;;;6.20;;
70840;SDS011;58465;51.534;9.934;2022-07-01T02:44:35;10.30;;;6.78;;
70840;SDS011;58465;51.534;9.934;2022-07-01T02:47:00;10.60;;;7.85;;
70840;SDS011;58465;51.534;9.934;2022-07-01T02:49:26;10.45;;;7.72;;
70840;SDS011;58465;51.534;9.934;2022-07-01T02:51:51;11.32;;;8.63;;
70840;SDS011;58465;51.534;9.934;2022-07-01T02:54:17;10.75;;;7.72;;
70840;SDS011;58465;51.534;9.934;2022-07-01T02:56:42;9.25;;;7.38;;
70840;SDS011;58465;51.534;9.934;2022-07-01T02:59:07;12.55;;;8.80;;
70840;SDS011;58465;51.534;9.934;2022-07-01T03:01:32;12.70;;;10.35;;
70840;SDS011;58465;51.534;9.934;2022-07-01T03:03:58;10.82;;;9.15;;
70840;SDS011;58465;51.534;9.934;2022-07-01T03:06:23;13.57;;;10.77;;
70840;SDS011;58465;51.534;9.934;2022-07-01T03:08:48;12.05;;;10.43;;
70840;SDS011;58465;51.534;9.934;2022-07-01T03:11:14;17.85;;;12.00;;
70840;SDS011;58465;51.534;9.934;2022-07-01T03:13:39;17.02;;;12.43;;
70840;SDS011;58465;51.534;9.934;2022-07-01T03:16:04;15.10;;;11.43;;
70840;SDS011;58465;51.534;9.934;2022-07-01T03:18:30;16.80;;;11.35;;
70840;SDS011;58465;51.534;9.934;2022-07-01T03:20:55;15.98;;;11.40;;
70840;SDS011;58465;51.534;9.934;2022-07-01T03:23:20;14.25;;;10.93;;
70840;SDS011;58465;51.534;9.934;2022-07-01T03:25:45;13.23;;;10.63;;
70840;SDS011;58465;51.534;9.934;2022-07-01T03:28:11;12.55;;;9.60;;
70840;SDS011;58465;51.534;9.934;2022-07-01T03:30:36;12.30;;;9.20;;
70840;SDS011;58465;51.534;9.934;2022-07-01T03:33:02;10.45;;;8.20;;
70840;SDS011;58465;51.534;9.934;2022-07-01T03:35:27;16.50;;;8.80;;
70840;SDS011;58465;51.534;9.934;2022-07-01T03:38:02;10.73;;;7.47;;
70840;SDS011;58465;51.534;9.934;2022-07-01T03:40:28;10.10;;;7.20;;
70840;SDS011;58465;51.534;9.934;2022-07-01T03:42:54;8.15;;;6.25;;
70840;SDS011;58465;51.534;9.934;2022-07-01T03:45:20;14.10;;;6.40;;
70840;SDS011;58465;51.534;9.934;2022-07-01T03:47:46;8.13;;;5.88;;
70840;SDS011;58465;51.534;9.934;2022-07-01T03:50:12;7.68;;;5.50;;
70840;SDS011;58465;51.534;9.934;2022-07-01T03:52:38;8.93;;;5.10;;
70840;SDS011;58465;51.534;9.934;2022-07-01T03:55:03;7.65;;;5.05;;
70840;SDS011;58465;51.534;9.934;2022-07-01T03:57:29;9.65;;;4.40;;
70840;SDS011;58465;51.534;9.934;2022-07-01T03:59:54;7.80;;;4.85;;
70840;SDS011;58465;51.534;9.934;2022-07-01T04:02:19;7.40;;;4.85;;
70840;SDS011;58465;51.534;9.934;2022-07-01T04:04:44;7.85;;;4.38;;
70840;SDS011;58465;51.534;9.934;2022-07-01T04:07:10;9.10;;;4.50;;
70840;SDS011;58465;51.534;9.934;2022-07-01T04:09:36;6.10;;;3.80;;
70840;SDS011;58465;51.534;9.934;2022-07-01T04:12:02;4.53;;;3.88;;
70840;SDS011;58465;51.534;9.934;2022-07-01T04:14:28;5.93;;;4.30;;
70840;SDS011;58465;51.534;9.934;2022-07-01T04:16:54;5.88;;;4.30;;
70840;SDS011;58465;51.534;9.934;2022-07-01T04:19:20;5.18;;;3.50;;
70840;SDS011;58465;51.534;9.934;2022-07-01T04:21:45;5.53;;;3.90;;
70840;SDS011;58465;51.534;9.934;2022-07-01T04:24:30;4.63;;;3.90;;
70840;SDS011;58465;51.534;9.934;2022-07-01T04:26:57;6.25;;;3.67;;
70840;SDS011;58465;51.534;9.934;2022-07-01T04:29:24;6.32;;;4.32;;
70840;SDS011;58465;51.534;9.934;2022-07-01T04:31:49;6.80;;;4.28;;
70840;SDS011;58465;51.534;9.934;2022-07-01T04:34:15;6.05;;;4.53;;
70840;SDS011;58465;51.534;9.934;2022-07-01T04:36:40;7.95;;;3.95;;
70840;SDS011;58465;51.534;9.934;2022-07-01T04:39:06;5.75;;;4.25;;
70840;SDS011;58465;51.534;9.934;2022-07-01T04:41:31;6.18;;;4.07;;
70840;SDS011;58465;51.534;9.934;2022-07-01T04:44:16;8.88;;;4.47;;
70840;SDS011;58465;51.534;9.934;2022-07-01T04:46:42;5.88;;;4.43;;
70840;SDS011;58465;51.534;9.934;2022-07-01T04:49:07;5.25;;;4.05;;
70840;SDS011;58465;51.534;9.934;2022-07-01T04:51:33;6.07;;;3.90;;
70840;SDS011;58465;51.534;9.934;2022-07-01T04:54:00;4.30;;;3.70;;
70840;SDS011;58465;51.534;9.934;2022-07-01T04:56:25;4.63;;;3.70;;
70840;SDS011;58465;51.534;9.934;2022-07-01T04:58:53;5.78;;;3.97;;
70840;SDS011;58465;51.534;9.934;2022-07-01T05:01:18;6.25;;;4.65;;
70840;SDS011;58465;51.534;9.934;2022-07-01T05:03:44;5.70;;;3.85;;
70840;SDS011;58465;51.534;9.934;2022-07-01T05:06:09;5.57;;;3.75;;
70840;SDS011;58465;51.534;9.934;2022-07-01T05:08:34;5.20;;;3.53;;
70840;SDS011;58465;51.534;9.934;2022-07-01T05:11:00;6.07;;;3.20;;
70840;SDS011;58465;51.534;9.934;2022-07-01T05:13:25;7.47;;;3.03;;
70840;SDS011;58465;51.534;9.934;2022-07-01T05:15:50;3.70;;;2.83;;
70840;SDS011;58465;51.534;9.934;2022-07-01T05:18:15;3.78;;;3.00;;
70840;SDS011;58465;51.534;9.934;2022-07-01T05:20:59;4.72;;;2.78;;
70840;SDS011;58465;51.534;9.934;2022-07-01T05:23:43;4.93;;;3.03;;
70840;SDS011;58465;51.534;9.934;2022-07-01T05:26:09;8.25;;;3.17;;
70840;SDS011;58465;51.534;9.934;2022-07-01T05:28:37;6.15;;;3.20;;
70840;SDS011;58465;51.534;9.934;2022-07-01T05:31:03;4.90;;;3.33;;
70840;SDS011;58465;51.534;9.934;2022-07-01T05:33:28;3.72;;;3.10;;
70840;SDS011;58465;51.534;9.934;2022-07-01T05:35:53;4.65;;;3.97;;
70840;SDS011;58465;51.534;9.934;2022-07-01T05:38:19;6.63;;;4.40;;
70840;SDS011;58465;51.534;9.934;2022-07-01T05:40:44;8.00;;;4.90;;
70840;SDS011;58465;51.534;9.934;2022-07-01T05:43:09;6.20;;;4.30;;
70840;SDS011;58465;51.534;9.934;2022-07-01T05:45:35;9.23;;;4.75;;
70840;SDS011;58465;51.534;9.934;2022-07-01T05:48:00;5.85;;;4.25;;
70840;SDS011;58465;51.534;9.934;2022-07-01T05:50:26;5.22;;;4.35;;
70840;SDS011;58465;51.534;9.934;2022-07-01T05:52:51;5.15;;;4.53;;
70840;SDS011;58465;51.534;9.934;2022-07-01T05:55:16;7.03;;;5.60;;
70840;SDS011;58465;51.534;9.934;2022-07-01T05:57:42;8.30;;;6.15;;
70840;SDS011;58465;51.534;9.934;2022-07-01T06:00:07;8.77;;;6.00;;
70840;SDS011;58465;51.534;9.934;2022-07-01T06:02:34;9.50;;;6.88;;
70840;SDS011;58465;51.534;9.934;2022-07-01T06:05:00;9.40;;;6.80;;
70840;SDS011;58465;51.534;9.934;2022-07-01T06:07:25;10.68;;;7.40;;
70840;SDS011;58465;51.534;9.934;2022-07-01T06:09:50;10.88;;;7.30;;
70840;SDS011;58465;51.534;9.934;2022-07-01T06:12:16;10.13;;;8.20;;
70840;SDS011;58465;51.534;9.934;2022-07-01T06:14:41;10.15;;;7.28;;
70840;SDS011;58465;51.534;9.934;2022-07-01T06:17:07;8.30;;;6.97;;
70840;SDS011;58465;51.534;9.934;2022-07-01T06:19:34;9.82;;;7.32;;
70840;SDS011;58465;51.534;9.934;2022-07-01T06:21:59;13.30;;;7.97;;
70840;SDS011;58465;51.534;9.934;2022-07-01T06:24:25;12.18;;;8.38;;
70840;SDS011;58465;51.534;9.934;2022-07-01T06:26:50;13.65;;;9.07;;
70840;SDS011;58465;51.534;9.934;2022-07-01T06:29:15;10.68;;;8.57;;
70840;SDS011;58465;51.534;9.934;2022-07-01T06:31:40;11.38;;;8.48;;
70840;SDS011;58465;51.534;9.934;2022-07-01T06:34:06;11.55;;;9.05;;
70840;SDS011;58465;51.534;9.934;2022-07-01T06:36:31;10.85;;;8.73;;
70840;SDS011;58465;51.534;9.934;2022-07-01T06:38:56;12.18;;;9.32;;
70840;SDS011;58465;51.534;9.934;2022-07-01T06:41:22;11.10;;;8.95;;
70840;SDS011;58465;51.534;9.934;2022-07-01T06:43:53;10.57;;;8.40;;
70840;SDS011;58465;51.534;9.934;2022-07-01T06:46:20;13.68;;;9.57;;
70840;SDS011;58465;51.534;9.934;2022-07-01T06:48:46;13.65;;;10.15;;
70840;SDS011;58465;51.534;9.934;2022-07-01T06:51:12;16.75;;;11.02;;
70840;SDS011;58465;51.534;9.934;2022-07-01T06:53:37;17.15;;;11.27;;
70840;SDS011;58465;51.534;9.934;2022-07-01T06:56:03;11.57;;;8.93;;
70840;SDS011;58465;51.534;9.934;2022-07-01T06:58:28;12.35;;;9.70;;
70840;SDS011;58465;51.534;9.934;2022-07-01T07:00:54;14.18;;;9.88;;
70840;SDS011;58465;51.534;9.934;2022-07-01T07:03:19;12.93;;;9.73;;
70840;SDS011;58465;51.534;9.934;2022-07-01T07:05:44;13.38;;;9.90;;
70840;SDS011;58465;51.534;9.934;2022-07-01T07:08:09;10.48;;;8.35;;
70840;SDS011;58465;51.534;9.934;2022-07-01T07:10:35;15.85;;;10.07;;
70840;SDS011;58465;51.534;9.934;2022-07-01T07:13:01;14.63;;;11.13;;
70840;SDS011;58465;51.534;9.934;2022-07-01T07:15:26;10.55;;;8.50;;
70840;SDS011;58465;51.534;9.934;2022-07-01T07:17:51;13.63;;;8.50;;
70840;SDS011;58465;51.534;9.934;2022-07-01T07:20:17;10.40;;;8.25;;
70840;SDS011;58465;51.534;9.934;2022-07-01T07:22:42;12.98;;;8.88;;
70840;SDS011;58465;51.534;9.934;2022-07-01T07:25:08;13.68;;;8.68;;
70840;SDS011;58465;51.534;9.934;2022-07-01T07:27:33;13.13;;;8.65;;
70840;SDS011;58465;51.534;9.934;2022-07-01T07:29:58;11.38;;;8.90;;
70840;SDS011;58465;51.534;9.934;2022-07-01T07:32:24;13.73;;;9.52;;
70840;SDS011;58465;51.534;9.934;2022-07-01T07:34:49;13.48;;;8.95;;
70840;SDS011;58465;51.534;9.934;2022-07-01T07:37:14;11.40;;;8.55;;
70840;SDS011;58465;51.534;9.934;2022-07-01T07:39:40;11.05;;;7.72;;
70840;SDS011;58465;51.534;9.934;2022-07-01T07:42:05;12.45;;;9.73;;
70840;SDS011;58465;51.534;9.934;2022-07-01T07:44:31;9.90;;;7.63;;
70840;SDS011;58465;51.534;9.934;2022-07-01T07:46:56;11.77;;;8.57;;
70840;SDS011;58465;51.534;9.934;2022-07-01T07:49:22;9.98;;;7.70;;
70840;SDS011;58465;51.534;9.934;2022-07-01T07:51:48;12.95;;;9.43;;
70840;SDS011;58465;51.534;9.934;2022-07-01T07:54:13;15.63;;;9.40;;
70840;SDS011;58465;51.534;9.934;2022-07-01T07:56:39;12.40;;;9.25;;
70840;SDS011;58465;51.534;9.934;2022-07-01T07:59:04;14.10;;;9.10;;
70840;SDS011;58465;51.534;9.934;2022-07-01T08:01:29;13.10;;;9.25;;
70840;SDS011;58465;51.534;9.934;2022-07-01T08:03:54;17.88;;;10.00;;
70840;SDS011;58465;51.534;9.934;2022-07-01T08:06:20;15.38;;;10.48;;
70840;SDS011;58465;51.534;9.934;2022-07-01T08:08:45;14.95;;;9.88;;
70840;SDS011;58465;51.534;9.934;2022-07-01T08:11:11;15.35;;;9.32;;
70840;SDS011;58465;51.534;9.934;2022-07-01T08:13:36;14.98;;;9.90;;
70840;SDS011;58465;51.534;9.934;2022-07-01T08:16:02;13.10;;;9.05;;
70840;SDS011;58465;51.534;9.934;2022-07-01T08:18:28;15.52;;;9.50;;
70840;SDS011;58465;51.534;9.934;2022-07-01T08:20:54;13.43;;;9.23;;
70840;SDS011;58465;51.534;9.934;2022-07-01T08:23:20;14.55;;;9.30;;
70840;SDS011;58465;51.534;9.934;2022-07-01T08:25:46;12.40;;;8.77;;
70840;SDS011;58465;51.534;9.934;2022-07-01T08:28:12;13.93;;;9.45;;
70840;SDS011;58465;51.534;9.934;2022-07-01T08:30:37;12.68;;;8.68;;
70840;SDS011;58465;51.534;9.934;2022-07-01T08:33:03;15.95;;;8.85;;
70840;SDS011;58465;51.534;9.934;2022-07-01T08:35:29;18.30;;;9.77;;
70840;SDS011;58465;51.534;9.934;2022-07-01T08:37:55;18.95;;;9.75;;
70840;SDS011;58465;51.534;9.934;2022-07-01T08:40:23;14.00;;;9.15;;
70840;SDS011;58465;51.534;9.934;2022-07-01T08:42:56;12.63;;;8.27;;
70840;SDS011;58465;51.534;9.934;2022-07-01T08:45:24;10.57;;;7.90;;
70840;SDS011;58465;51.534;9.934;2022-07-01T08:47:52;13.90;;;8.13;;
70840;SDS011;58465;51.534;9.934;2022-07-01T08:50:22;13.07;;;7.75;;
70840;SDS011;58465;51.534;9.934;2022-07-01T08:52:48;13.95;;;8.63;;
70840;SDS011;58465;51.534;9.934;2022-07-01T08:55:13;15.63;;;8.70;;
70840;SDS011;58465;51.534;9.934;2022-07-01T08:57:39;13.43;;;8.63;;
70840;SDS011;58465;51.534;9.934;2022-07-01T09:00:04;18.25;;;10.57;;
70840;SDS011;58465;51.534;9.934;2022-07-01T09:05:22;10.90;;;7.28;;
70840;SDS011;58465;51.534;9.934;2022-07-01T09:07:49;11.27;;;6.53;;
70840;SDS011;58465;51.534;9.934;2022-07-01T09:10:30;12.68;;;8.73;;
70840;SDS011;58465;51.534;9.934;2022-07-01T09:13:03;10.43;;;6.50;;
70840;SDS011;58465;51.534;9.934;2022-07-01T09:15:33;10.05;;;7.18;;
70840;SDS011;58465;51.534;9.934;2022-07-01T09:18:05;23.92;;;13.32;;
70840;SDS011;58465;51.534;9.934;2022-07-01T09:20:43;25.20;;;10.95;;
70840;SDS011;58465;51.534;9.934;2022-07-01T09:23:18;12.02;;;7.00;;
70840;SDS011;58465;51.534;9.934;2022-07-01T09:25:44;13.57;;;7.25;;
70840;SDS011;58465;51.534;9.934;2022-07-01T09:28:24;12.38;;;6.68;;
70840;SDS011;58465;51.534;9.934;2022-07-01T09:30:54;12.32;;;6.72;;
70840;SDS011;58465;51.534;9.934;2022-07-01T09:33:26;11.43;;;6.35;;
70840;SDS011;58465;51.534;9.934;2022-07-01T09:35:53;10.60;;;6.30;;
70840;SDS011;58465;51.534;9.934;2022-07-01T09:38:21;19.25;;;6.85;;
70840;SDS011;58465;51.534;9.934;2022-07-01T09:40:57;15.48;;;7.75;;
70840;SDS011;58465;51.534;9.934;2022-07-01T09:43:28;8.25;;;5.50;;
70840;SDS011;58465;51.534;9.934;2022-07-01T09:50:57;8.48;;;5.80;;
70840;SDS011;58465;51.534;9.934;2022-07-01T09:53:22;11.20;;;5.05;;
70840;SDS011;58465;51.534;9.934;2022-07-01T09:55:47;8.20;;;4.72;;
70840;SDS011;58465;51.534;9.934;2022-07-01T09:58:13;7.90;;;4.88;;
70840;SDS011;58465;51.534;9.934;2022-07-01T10:00:39;6.68;;;4.38;;
70840;SDS011;58465;51.534;9.934;2022-07-01T10:03:06;6.88;;;5.45;;
70840;SDS011;58465;51.534;9.934;2022-07-01T10:05:33;6.47;;;4.30;;
70840;SDS011;58465;51.534;9.934;2022-07-01T10:14:08;7.32;;;4.65;;
70840;SDS011;58465;51.534;9.934;2022-07-01T10:16:36;6.10;;;3.90;;
70840;SDS011;58465;51.534;9.934;2022-07-01T10:21:52;6.20;;;4.20;;
70840;SDS011;58465;51.534;9.934;2022-07-01T10:24:22;4.88;;;3.65;;
70840;SDS011;58465;51.534;9.934;2022-07-01T10:26:48;10.30;;;4.30;;
70840;SDS011;58465;51.534;9.934;2022-07-01T10:32:08;10.55;;;4.80;;
70840;SDS011;58465;51.534;9.934;2022-07-01T10:34:39;12.30;;;7.65;;
70840;SDS011;58465;51.534;9.934;2022-07-01T10:37:06;8.13;;;3.97;;
70840;SDS011;58465;51.534;9.934;2022-07-01T10:42:31;7.03;;;4.80;;
70840;SDS011;58465;51.534;9.934;2022-07-01T10:45:09;5.65;;;3.58;;
70840;SDS011;58465;51.534;9.934;2022-07-01T10:47:36;8.82;;;3.40;;
70840;SDS011;58465;51.534;9.934;2022-07-01T10:50:07;5.85;;;3.55;;
70840;SDS011;58465;51.534;9.934;2022-07-01T10:52:34;6.25;;;3.20;;
70840;SDS011;58465;51.534;9.934;2022-07-01T10:55:00;4.55;;;3.15;;
70840;SDS011;58465;51.534;9.934;2022-07-01T10:57:29;4.57;;;2.88;;
70840;SDS011;58465;51.534;9.934;2022-07-01T11:02:29;6.95;;;4.07;;
70840;SDS011;58465;51.534;9.934;2022-07-01T11:04:57;32.10;;;11.43;;
70840;SDS011;58465;51.534;9.934;2022-07-01T11:07:26;8.13;;;5.00;;
70840;SDS011;58465;51.534;9.934;2022-07-01T11:09:53;4.20;;;2.95;;
70840;SDS011;58465;51.534;9.934;2022-07-01T11:12:22;12.77;;;2.72;;
70840;SDS011;58465;51.534;9.934;2022-07-01T11:14:48;3.88;;;2.00;;
70840;SDS011;58465;51.534;9.934;2022-07-01T11:17:14;2.92;;;2.00;;
70840;SDS011;58465;51.534;9.934;2022-07-01T11:19:40;4.22;;;2.50;;
70840;SDS011;58465;51.534;9.934;2022-07-01T11:22:12;5.45;;;2.30;;
70840;SDS011;58465;51.534;9.934;2022-07-01T11:24:43;2.50;;;1.80;;
70840;SDS011;58465;51.534;9.934;2022-07-01T11:27:09;3.22;;;2.10;;
70840;SDS011;58465;51.534;9.934;2022-07-01T11:29:34;7.32;;;3.95;;
70840;SDS011;58465;51.534;9.934;2022-07-01T11:32:00;4.82;;;2.60;;
70840;SDS011;58465;51.534;9.934;2022-07-01T11:34:29;6.05;;;2.30;;
70840;SDS011;58465;51.534;9.934;2022-07-01T11:36:55;7.55;;;3.63;;
70840;SDS011;58465;51.534;9.934;2022-07-01T11:39:39;6.07;;;3.22;;
70840;SDS011;58465;51.534;9.934;2022-07-01T11:42:07;9.82;;;6.30;;
70840;SDS011;58465;51.534;9.934;2022-07-01T11:44:35;7.40;;;2.47;;
70840;SDS011;58465;51.534;9.934;2022-07-01T11:47:01;5.43;;;2.90;;
70840;SDS011;58465;51.534;9.934;2022-07-01T11:49:28;9.43;;;2.90;;
70840;SDS011;58465;51.534;9.934;2022-07-01T11:51:57;2.60;;;1.90;;
70840;SDS011;58465;51.534;9.934;2022-07-01T11:54:24;2.63;;;1.65;;
70840;SDS011;58465;51.534;9.934;2022-07-01T11:56:49;7.40;;;2.40;;
70840;SDS011;58465;51.534;9.934;2022-07-01T11:59:15;4.40;;;2.00;;
70840;SDS011;58465;51.534;9.934;2022-07-01T12:01:41;4.03;;;2.03;;
70840;SDS011;58465;51.534;9.934;2022-07-01T12:04:07;5.00;;;2.55;;
70840;SDS011;58465;51.534;9.934;2022-07-01T12:06:34;5.88;;;1.90;;
70840;SDS011;58465;51.534;9.934;2022-07-01T12:09:01;4.25;;;2.00;;
70840;SDS011;58465;51.534;9.934;2022-07-01T12:11:27;2.80;;;1.90;;
70840;SDS011;58465;51.534;9.934;2022-07-01T12:13:54;3.53;;;1.88;;
70840;SDS011;58465;51.534;9.934;2022-07-01T12:16:21;3.03;;;1.75;;
70840;SDS011;58465;51.534;9.934;2022-07-01T12:18:53;3.33;;;2.20;;
70840;SDS011;58465;51.534;9.934;2022-07-01T12:21:24;3.78;;;2.83;;
70840;SDS011;58465;51.534;9.934;2022-07-01T12:26:32;6.93;;;2.53;;
70840;SDS011;58465;51.534;9.934;2022-07-01T12:28:58;1.70;;;1.50;;
70840;SDS011;58465;51.534;9.934;2022-07-01T12:31:23;4.18;;;1.90;;
70840;SDS011;58465;51.534;9.934;2022-07-01T12:33:49;3.47;;;1.58;;
70840;SDS011;58465;51.534;9.934;2022-07-01T12:36:18;4.72;;;1.58;;
70840;SDS011;58465;51.534;9.934;2022-07-01T12:38:44;4.88;;;2.17;;
70840;SDS011;58465;51.534;9.934;2022-07-01T12:43:59;3.22;;;1.70;;
70840;SDS011;58465;51.534;9.934;2022-07-01T12:46:29;1.15;;;1.05;;
70840;SDS011;58465;51.534;9.934;2022-07-01T12:48:56;3.72;;;2.30;;
70840;SDS011;58465;51.534;9.934;2022-07-01T12:51:28;6.38;;;1.27;;
70840;SDS011;58465;51.534;9.934;2022-07-01T12:53:54;2.38;;;1.30;;
70840;SDS011;58465;51.534;9.934;2022-07-01T12:56:22;2.88;;;1.48;;
70840;SDS011;58465;51.534;9.934;2022-07-01T12:58:49;3.20;;;1.40;;
70840;SDS011;58465;51.534;9.934;2022-07-01T13:01:17;3.55;;;1.60;;
70840;SDS011;58465;51.534;9.934;2022-07-01T13:03:42;3.22;;;1.40;;
70840;SDS011;58465;51.534;9.934;2022-07-01T13:06:08;2.50;;;1.80;;
70840;SDS011;58465;51.534;9.934;2022-07-01T13:08:33;2.88;;;1.58;;
70840;SDS011;58465;51.534;9.934;2022-07-01T13:10:59;3.65;;;1.50;;
70840;SDS011;58465;51.534;9.934;2022-07-01T13:13:24;3.08;;;1.60;;
70840;SDS011;58465;51.534;9.934;2022-07-01T13:15:49;3.45;;;1.70;;
70840;SDS011;58465;51.534;9.934;2022-07-01T13:18:15;5.35;;;1.80;;
70840;SDS011;58465;51.534;9.934;2022-07-01T13:20:41;6.22;;;1.65;;
70840;SDS011;58465;51.534;9.934;2022-07-01T13:23:08;3.50;;;1.90;;
70840;SDS011;58465;51.534;9.934;2022-07-01T13:25:33;3.15;;;1.67;;
70840;SDS011;58465;51.534;9.934;2022-07-01T13:27:58;3.50;;;1.80;;
70840;SDS011;58465;51.534;9.934;2022-07-01T13:30:24;3.10;;;1.98;;
70840;SDS011;58465;51.534;9.934;2022-07-01T13:32:49;2.97;;;1.50;;
70840;SDS011;58465;51.534;9.934;2022-07-01T13:35:18;6.07;;;1.70;;
70840;SDS011;58465;51.534;9.934;2022-07-01T13:37:43;4.13;;;2.83;;
70840;SDS011;58465;51.534;9.934;2022-07-01T13:40:09;7.03;;;2.15;;
70840;SDS011;58465;51.534;9.934;2022-07-01T13:42:35;2.65;;;1.40;;
70840;SDS011;58465;51.534;9.934;2022-07-01T13:45:01;4.35;;;1.60;;
70840;SDS011;58465;51.534;9.934;2022-07-01T13:47:26;5.00;;;1.77;;
70840;SDS011;58465;51.534;9.934;2022-07-01T13:49:52;4.82;;;2.85;;
70840;SDS011;58465;51.534;9.934;2022-07-01T13:52:18;2.63;;;1.73;;
70840;SDS011;58465;51.534;9.934;2022-07-01T13:54:43;4.15;;;1.63;;
70840;SDS011;58465;51.534;9.934;2022-07-01T13:57:08;7.05;;;1.88;;
70840;SDS011;58465;51.534;9.934;2022-07-01T13:59:33;2.97;;;1.45;;
70840;SDS011;58465;51.534;9.934;2022-07-01T14:01:59;5.30;;;1.92;;
70840;SDS011;58465;51.534;9.934;2022-07-01T14:04:25;5.88;;;3.20;;
70840;SDS011;58465;51.534;9.934;2022-07-01T14:06:50;7.28;;;2.30;;
70840;SDS011;58465;51.534;9.934;2022-07-01T14:09:15;3.33;;;1.40;;
70840;SDS011;58465;51.534;9.934;2022-07-01T14:11:41;4.70;;;1.83;;
70840;SDS011;58465;51.534;9.934;2022-07-01T14:14:06;4.75;;;1.45;;
70840;SDS011;58465;51.534;9.934;2022-07-01T14:16:32;5.03;;;1.55;;
70840;SDS011;58465;51.534;9.934;2022-07-01T14:18:58;1.98;;;1.40;;
70840;SDS011;58465;51.534;9.934;2022-07-01T14:21:23;5.68;;;1.60;;
70840;SDS011;58465;51.534;9.934;2022-07-01T14:23:49;4.32;;;1.33;;
70840;SDS011;58465;51.534;9.934;2022-07-01T14:26:15;5.97;;;1.63;;
70840;SDS011;58465;51.534;9.934;2022-07-01T14:28:40;3.67;;;1.80;;
70840;SDS011;58465;51.534;9.934;2022-07-01T14:31:06;4.47;;;2.00;;
70840;SDS011;58465;51.534;9.934;2022-07-01T14:33:31;6.30;;;1.80;;
70840;SDS011;58465;51.534;9.934;2022-07-01T14:35:57;2.70;;;1.60;;
70840;SDS011;58465;51.534;9.934;2022-07-01T14:38:22;6.13;;;1.67;;
70840;SDS011;58465;51.534;9.934;2022-07-01T14:40:47;5.07;;;1.30;;
70840;SDS011;58465;51.534;9.934;2022-07-01T14:43:13;7.30;;;3.38;;
70840;SDS011;58465;51.534;9.934;2022-07-01T14:45:38;2.58;;;1.42;;
70840;SDS011;58465;51.534;9.934;2022-07-01T14:48:03;4.30;;;2.53;;
70840;SDS011;58465;51.534;9.934;2022-07-01T14:50:29;12.15;;;6.32;;
70840;SDS011;58465;51.534;9.934;2022-07-01T14:52:55;18.10;;;9.98;;
70840;SDS011;58465;51.534;9.934;2022-07-01T14:55:21;3.22;;;1.60;;
70840;SDS011;58465;51.534;9.934;2022-07-01T14:57:46;5.80;;;1.83;;
70840;SDS011;58465;51.534;9.934;2022-07-01T15:00:12;5.90;;;1.98;;
70840;SDS011;58465;51.534;9.934;2022-07-01T15:02:38;3.72;;;1.58;;
70840;SDS011;58465;51.534;9.934;2022-07-01T15:05:04;4.75;;;2.13;;
70840;SDS011;58465;51.534;9.934;2022-07-01T15:07:29;2.95;;;1.80;;